sensor_id;sensor_type;location;lat;lon;timestamp;P1;durP1;ratioP1;P2;durP2;ratioP2
15151;SDS011;7676;50.900;6.234;2022-08-14T00:00:55;6.57;;;3.10;;
15151;SDS011;7676;50.900;6.234;2022-08-14T00:05:59;6.73;;;3.20;;
15151;SDS011;7676;50.900;6.234;2022-08-14T00:11:23;4.37;;;2.63;;
15151;SDS011;7676;50.900;6.234;2022-08-14T00:16:25;5.73;;;3.00;;
15151;SDS011;7676;50.900;6.234;2022-08-14T00:21:46;8.97;;;3.07;;
15151;SDS011;7676;50.900;6.234;2022-08-14T00:26:51;8.40;;;3.70;;
15151;SDS011;7676;50.900;6.234;2022-08-14T00:31:55;7.77;;;3.27;;
15151;SDS011;7676;50.900;6.234;2022-08-14T00:36:58;6.70;;;3.43;;
15151;SDS011;7676;50.900;6.234;2022-08-14T00:42:03;6.97;;;3.40;;
15151;SDS011;7676;50.900;6.234;2022-08-14T00:47:06;9.33;;;3.13;;
15151;SDS011;7676;50.900;6.234;2022-08-14T00:52:13;6.47;;;2.83;;
15151;SDS011;7676;50.900;6.234;2022-08-14T00:57:20;5.80;;;2.83;;
15151;SDS011;7676;50.900;6.234;2022-08-14T01:02:24;7.50;;;3.10;;
15151;SDS011;7676;50.900;6.234;2022-08-14T01:07:32;5.90;;;3.00;;
15151;SDS011;7676;50.900;6.234;2022-08-14T01:12:51;7.67;;;3.30;;
15151;SDS011;7676;50.900;6.234;2022-08-14T01:17:55;8.93;;;3.00;;
15151;SDS011;7676;50.900;6.234;2022-08-14T01:23:15;5.60;;;2.87;;
15151;SDS011;7676;50.900;6.234;2022-08-14T01:28:19;6.47;;;2.60;;
15151;SDS011;7676;50.900;6.234;2022-08-14T01:33:44;5.50;;;2.83;;
15151;SDS011;7676;50.900;6.234;2022-08-14T01:39:10;3.53;;;2.80;;
15151;SDS011;7676;50.900;6.234;2022-08-14T01:44:15;3.97;;;2.87;;
15151;SDS011;7676;50.900;6.234;2022-08-14T01:49:34;2.77;;;2.50;;
15151;SDS011;7676;50.900;6.234;2022-08-14T01:54:57;2.90;;;2.60;;
15151;SDS011;7676;50.900;6.234;2022-08-14T01:59:59;3.13;;;2.70;;
15151;SDS011;7676;50.900;6.234;2022-08-14T02:05:06;2.97;;;2.70;;
15151;SDS011;7676;50.900;6.234;2022-08-14T02:10:12;4.73;;;3.13;;
15151;SDS011;7676;50.900;6.234;2022-08-14T02:15:16;3.90;;;2.70;;
15151;SDS011;7676;50.900;6.234;2022-08-14T02:20:22;4.67;;;3.00;;
15151;SDS011;7676;50.900;6.234;2022-08-14T02:25:25;3.77;;;2.90;;
15151;SDS011;7676;50.900;6.234;2022-08-14T02:30:31;2.63;;;2.43;;
15151;SDS011;7676;50.900;6.234;2022-08-14T02:35:40;3.60;;;3.17;;
15151;SDS011;7676;50.900;6.234;2022-08-14T02:40:44;3.73;;;3.00;;
15151;SDS011;7676;50.900;6.234;2022-08-14T02:45:50;4.23;;;3.00;;
15151;SDS011;7676;50.900;6.234;2022-08-14T02:50:52;3.30;;;3.00;;
15151;SDS011;7676;50.900;6.234;2022-08-14T02:55:55;3.83;;;3.10;;
15151;SDS011;7676;50.900;6.234;2022-08-14T03:01:06;5.97;;;3.30;;
15151;SDS011;7676;50.900;6.234;2022-08-14T03:06:09;7.10;;;3.47;;
15151;SDS011;7676;50.900;6.234;2022-08-14T03:11:21;5.57;;;2.87;;
15151;SDS011;7676;50.900;6.234;2022-08-14T03:16:24;6.77;;;3.43;;
15151;SDS011;7676;50.900;6.234;2022-08-14T03:21:28;3.90;;;3.30;;
15151;SDS011;7676;50.900;6.234;2022-08-14T03:26:35;6.30;;;3.80;;
15151;SDS011;7676;50.900;6.234;2022-08-14T03:31:40;5.40;;;3.53;;
15151;SDS011;7676;50.900;6.234;2022-08-14T03:36:45;5.10;;;3.83;;
15151;SDS011;7676;50.900;6.234;2022-08-14T03:42:07;6.77;;;3.47;;
15151;SDS011;7676;50.900;6.234;2022-08-14T03:47:20;6.37;;;3.70;;
15151;SDS011;7676;50.900;6.234;2022-08-14T03:52:42;4.50;;;3.47;;
15151;SDS011;7676;50.900;6.234;2022-08-14T03:57:58;5.30;;;3.20;;
15151;SDS011;7676;50.900;6.234;2022-08-14T04:03:05;6.17;;;3.67;;
15151;SDS011;7676;50.900;6.234;2022-08-14T04:08:09;4.00;;;3.17;;
15151;SDS011;7676;50.900;6.234;2022-08-14T04:13:32;4.10;;;3.70;;
15151;SDS011;7676;50.900;6.234;2022-08-14T04:18:40;3.80;;;3.40;;
15151;SDS011;7676;50.900;6.234;2022-08-14T04:23:45;4.93;;;3.47;;
15151;SDS011;7676;50.900;6.234;2022-08-14T04:28:58;3.97;;;3.43;;
15151;SDS011;7676;50.900;6.234;2022-08-14T04:34:16;5.53;;;3.80;;
15151;SDS011;7676;50.900;6.234;2022-08-14T04:39:28;3.87;;;3.30;;
15151;SDS011;7676;50.900;6.234;2022-08-14T04:44:58;4.17;;;3.30;;
15151;SDS011;7676;50.900;6.234;2022-08-14T04:50:04;4.93;;;3.40;;
15151;SDS011;7676;50.900;6.234;2022-08-14T04:55:08;3.30;;;3.00;;
15151;SDS011;7676;50.900;6.234;2022-08-14T05:00:11;3.57;;;3.27;;
15151;SDS011;7676;50.900;6.234;2022-08-14T05:05:18;3.23;;;3.00;;
15151;SDS011;7676;50.900;6.234;2022-08-14T05:10:21;4.63;;;3.30;;
15151;SDS011;7676;50.900;6.234;2022-08-14T05:15:33;3.33;;;3.10;;
15151;SDS011;7676;50.900;6.234;2022-08-14T05:20:40;4.37;;;3.50;;
15151;SDS011;7676;50.900;6.234;2022-08-14T05:26:05;3.27;;;2.97;;
15151;SDS011;7676;50.900;6.234;2022-08-14T05:31:14;3.93;;;3.50;;
15151;SDS011;7676;50.900;6.234;2022-08-14T05:36:22;3.33;;;3.03;;
15151;SDS011;7676;50.900;6.234;2022-08-14T05:41:24;3.70;;;3.33;;
15151;SDS011;7676;50.900;6.234;2022-08-14T05:46:47;3.93;;;3.60;;
15151;SDS011;7676;50.900;6.234;2022-08-14T05:51:50;5.20;;;3.23;;
15151;SDS011;7676;50.900;6.234;2022-08-14T05:56:52;3.27;;;3.00;;
15151;SDS011;7676;50.900;6.234;2022-08-14T06:01:56;3.70;;;3.30;;
15151;SDS011;7676;50.900;6.234;2022-08-14T06:06:58;3.60;;;3.30;;
15151;SDS011;7676;50.900;6.234;2022-08-14T06:12:02;4.30;;;3.73;;
15151;SDS011;7676;50.900;6.234;2022-08-14T06:17:06;4.20;;;3.80;;
15151;SDS011;7676;50.900;6.234;2022-08-14T06:22:08;3.70;;;3.40;;
15151;SDS011;7676;50.900;6.234;2022-08-14T06:27:13;3.93;;;3.57;;
15151;SDS011;7676;50.900;6.234;2022-08-14T06:32:16;4.30;;;3.90;;
15151;SDS011;7676;50.900;6.234;2022-08-14T06:37:52;5.70;;;3.77;;
15151;SDS011;7676;50.900;6.234;2022-08-14T06:43:03;4.53;;;3.83;;
15151;SDS011;7676;50.900;6.234;2022-08-14T06:48:12;4.73;;;4.13;;
15151;SDS011;7676;50.900;6.234;2022-08-14T06:53:22;7.20;;;3.90;;
15151;SDS011;7676;50.900;6.234;2022-08-14T06:58:29;4.47;;;4.00;;
15151;SDS011;7676;50.900;6.234;2022-08-14T07:03:33;5.07;;;4.13;;
15151;SDS011;7676;50.900;6.234;2022-08-14T07:08:54;5.37;;;4.47;;
15151;SDS011;7676;50.900;6.234;2022-08-14T07:13:56;4.30;;;3.90;;
15151;SDS011;7676;50.900;6.234;2022-08-14T07:18:59;6.90;;;4.83;;
15151;SDS011;7676;50.900;6.234;2022-08-14T07:24:02;5.13;;;4.63;;
15151;SDS011;7676;50.900;6.234;2022-08-14T07:29:05;4.50;;;4.10;;
15151;SDS011;7676;50.900;6.234;2022-08-14T07:34:07;4.23;;;3.93;;
15151;SDS011;7676;50.900;6.234;2022-08-14T07:39:12;5.67;;;4.77;;
15151;SDS011;7676;50.900;6.234;2022-08-14T07:44:14;4.03;;;3.73;;
15151;SDS011;7676;50.900;6.234;2022-08-14T07:49:33;5.00;;;4.60;;
15151;SDS011;7676;50.900;6.234;2022-08-14T07:54:36;4.60;;;4.30;;
15151;SDS011;7676;50.900;6.234;2022-08-14T07:59:39;4.30;;;4.00;;
15151;SDS011;7676;50.900;6.234;2022-08-14T08:04:49;5.00;;;4.60;;
15151;SDS011;7676;50.900;6.234;2022-08-14T08:09:56;4.93;;;4.53;;
15151;SDS011;7676;50.900;6.234;2022-08-14T08:15:01;5.00;;;4.60;;
15151;SDS011;7676;50.900;6.234;2022-08-14T08:20:18;4.93;;;4.50;;
15151;SDS011;7676;50.900;6.234;2022-08-14T08:25:29;5.37;;;4.80;;
15151;SDS011;7676;50.900;6.234;2022-08-14T08:30:41;5.00;;;4.60;;
15151;SDS011;7676;50.900;6.234;2022-08-14T08:35:51;4.80;;;4.40;;
15151;SDS011;7676;50.900;6.234;2022-08-14T08:40:54;4.70;;;4.33;;
15151;SDS011;7676;50.900;6.234;2022-08-14T08:46:05;5.57;;;4.70;;
15151;SDS011;7676;50.900;6.234;2022-08-14T08:51:29;5.73;;;5.23;;
15151;SDS011;7676;50.900;6.234;2022-08-14T09:01:47;5.57;;;4.70;;
15151;SDS011;7676;50.900;6.234;2022-08-14T09:06:57;5.20;;;4.30;;
15151;SDS011;7676;50.900;6.234;2022-08-14T09:12:11;4.30;;;3.90;;
15151;SDS011;7676;50.900;6.234;2022-08-14T09:17:15;4.83;;;4.40;;
15151;SDS011;7676;50.900;6.234;2022-08-14T09:22:18;4.40;;;4.00;;
15151;SDS011;7676;50.900;6.234;2022-08-14T09:27:37;4.70;;;4.30;;
15151;SDS011;7676;50.900;6.234;2022-08-14T09:32:56;4.20;;;3.90;;
15151;SDS011;7676;50.900;6.234;2022-08-14T09:43:53;3.63;;;3.30;;
15151;SDS011;7676;50.900;6.234;2022-08-14T09:49:07;3.90;;;3.60;;
15151;SDS011;7676;50.900;6.234;2022-08-14T09:54:18;3.22;;;2.92;;
15151;SDS011;7676;50.900;6.234;2022-08-14T09:59:24;3.50;;;3.20;;
15151;SDS011;7676;50.900;6.234;2022-08-14T10:04:32;3.72;;;3.42;;
15151;SDS011;7676;50.900;6.234;2022-08-14T10:09:47;2.85;;;2.65;;
15151;SDS011;7676;50.900;6.234;2022-08-14T10:15:01;3.22;;;2.92;;
15151;SDS011;7676;50.900;6.234;2022-08-14T10:20:15;2.80;;;2.60;;
15151;SDS011;7676;50.900;6.234;2022-08-14T10:25:46;3.15;;;2.95;;
15151;SDS011;7676;50.900;6.234;2022-08-14T10:30:51;3.17;;;2.97;;
15151;SDS011;7676;50.900;6.234;2022-08-14T10:35:56;3.40;;;3.15;;
15151;SDS011;7676;50.900;6.234;2022-08-14T10:46:15;3.10;;;2.80;;
15151;SDS011;7676;50.900;6.234;2022-08-14T10:51:38;3.20;;;2.90;;
15151;SDS011;7676;50.900;6.234;2022-08-14T10:56:43;3.88;;;3.25;;
15151;SDS011;7676;50.900;6.234;2022-08-14T11:01:46;3.30;;;3.10;;
15151;SDS011;7676;50.900;6.234;2022-08-14T11:06:52;3.63;;;3.33;;
15151;SDS011;7676;50.900;6.234;2022-08-14T11:11:55;3.53;;;3.15;;
15151;SDS011;7676;50.900;6.234;2022-08-14T11:17:17;3.30;;;3.10;;
15151;SDS011;7676;50.900;6.234;2022-08-14T11:22:23;4.43;;;3.63;;
15151;SDS011;7676;50.900;6.234;2022-08-14T11:27:52;3.72;;;3.42;;
15151;SDS011;7676;50.900;6.234;2022-08-14T11:32:56;3.60;;;3.30;;
15151;SDS011;7676;50.900;6.234;2022-08-14T11:38:00;3.40;;;3.10;;
15151;SDS011;7676;50.900;6.234;2022-08-14T11:43:05;4.20;;;3.20;;
15151;SDS011;7676;50.900;6.234;2022-08-14T11:48:27;3.50;;;3.20;;
15151;SDS011;7676;50.900;6.234;2022-08-14T11:53:54;3.50;;;3.20;;
15151;SDS011;7676;50.900;6.234;2022-08-14T11:58:58;5.35;;;3.20;;
15151;SDS011;7676;50.900;6.234;2022-08-14T12:04:07;3.40;;;3.10;;
15151;SDS011;7676;50.900;6.234;2022-08-14T12:09:34;3.33;;;3.03;;
15151;SDS011;7676;50.900;6.234;2022-08-14T12:14:51;3.10;;;2.90;;
15151;SDS011;7676;50.900;6.234;2022-08-14T12:20:04;3.20;;;3.00;;
15151;SDS011;7676;50.900;6.234;2022-08-14T12:25:11;3.15;;;2.95;;
15151;SDS011;7676;50.900;6.234;2022-08-14T12:35:55;3.70;;;3.05;;
15151;SDS011;7676;50.900;6.234;2022-08-14T12:41:00;2.92;;;2.72;;
15151;SDS011;7676;50.900;6.234;2022-08-14T12:46:05;3.33;;;3.05;;
15151;SDS011;7676;50.900;6.234;2022-08-14T12:51:16;3.65;;;3.25;;
15151;SDS011;7676;50.900;6.234;2022-08-14T12:56:26;5.80;;;3.05;;
15151;SDS011;7676;50.900;6.234;2022-08-14T13:01:35;3.08;;;2.78;;
15151;SDS011;7676;50.900;6.234;2022-08-14T13:07:02;3.53;;;3.22;;
15151;SDS011;7676;50.900;6.234;2022-08-14T13:12:09;3.53;;;3.22;;
15151;SDS011;7676;50.900;6.234;2022-08-14T13:17:55;3.50;;;3.25;;
15151;SDS011;7676;50.900;6.234;2022-08-14T13:23:01;3.45;;;3.15;;
15151;SDS011;7676;50.900;6.234;2022-08-14T13:28:05;3.30;;;3.10;;
15151;SDS011;7676;50.900;6.234;2022-08-14T13:33:12;4.65;;;3.25;;
15151;SDS011;7676;50.900;6.234;2022-08-14T13:38:18;3.50;;;3.30;;
15151;SDS011;7676;50.900;6.234;2022-08-14T13:43:23;3.53;;;3.22;;
15151;SDS011;7676;50.900;6.234;2022-08-14T13:48:32;3.30;;;3.03;;
15151;SDS011;7676;50.900;6.234;2022-08-14T13:53:40;3.85;;;3.45;;
15151;SDS011;7676;50.900;6.234;2022-08-14T13:59:07;3.50;;;3.20;;
15151;SDS011;7676;50.900;6.234;2022-08-14T14:04:14;3.35;;;3.15;;
15151;SDS011;7676;50.900;6.234;2022-08-14T14:09:25;4.10;;;3.30;;
15151;SDS011;7676;50.900;6.234;2022-08-14T14:14:44;3.90;;;3.55;;
15151;SDS011;7676;50.900;6.234;2022-08-14T14:19:55;3.85;;;3.53;;
15151;SDS011;7676;50.900;6.234;2022-08-14T14:24:58;3.60;;;3.30;;
15151;SDS011;7676;50.900;6.234;2022-08-14T14:30:00;3.50;;;3.20;;
15151;SDS011;7676;50.900;6.234;2022-08-14T14:35:16;3.60;;;3.25;;
15151;SDS011;7676;50.900;6.234;2022-08-14T14:40:33;3.20;;;2.90;;
15151;SDS011;7676;50.900;6.234;2022-08-14T14:45:55;3.30;;;3.10;;
15151;SDS011;7676;50.900;6.234;2022-08-14T14:50:58;3.67;;;3.20;;
15151;SDS011;7676;50.900;6.234;2022-08-14T14:56:02;3.38;;;3.10;;
15151;SDS011;7676;50.900;6.234;2022-08-14T15:01:24;3.20;;;3.00;;
15151;SDS011;7676;50.900;6.234;2022-08-14T15:06:28;3.47;;;3.20;;
15151;SDS011;7676;50.900;6.234;2022-08-14T15:11:34;3.60;;;3.30;;
15151;SDS011;7676;50.900;6.234;2022-08-14T15:16:38;3.08;;;2.88;;
15151;SDS011;7676;50.900;6.234;2022-08-14T15:21:40;3.22;;;3.03;;
15151;SDS011;7676;50.900;6.234;2022-08-14T15:26:43;3.30;;;3.10;;
15151;SDS011;7676;50.900;6.234;2022-08-14T15:31:46;3.00;;;2.72;;
15151;SDS011;7676;50.900;6.234;2022-08-14T15:36:48;3.28;;;2.92;;
15151;SDS011;7676;50.900;6.234;2022-08-14T15:41:51;3.13;;;2.92;;
15151;SDS011;7676;50.900;6.234;2022-08-14T15:46:58;3.17;;;2.97;;
15151;SDS011;7676;50.900;6.234;2022-08-14T15:52:01;2.85;;;2.65;;
15151;SDS011;7676;50.900;6.234;2022-08-14T15:57:07;2.95;;;2.75;;
15151;SDS011;7676;50.900;6.234;2022-08-14T16:02:11;2.90;;;2.70;;
15151;SDS011;7676;50.900;6.234;2022-08-14T16:07:16;2.85;;;2.65;;
15151;SDS011;7676;50.900;6.234;2022-08-14T16:12:22;3.65;;;3.35;;
15151;SDS011;7676;50.900;6.234;2022-08-14T16:17:45;2.95;;;2.53;;
15151;SDS011;7676;50.900;6.234;2022-08-14T16:22:49;5.45;;;2.97;;
15151;SDS011;7676;50.900;6.234;2022-08-14T16:28:00;3.70;;;3.05;;
15151;SDS011;7676;50.900;6.234;2022-08-14T16:33:07;3.30;;;2.95;;
15151;SDS011;7676;50.900;6.234;2022-08-14T16:38:32;3.58;;;3.38;;
15151;SDS011;7676;50.900;6.234;2022-08-14T16:43:49;3.55;;;3.00;;
15151;SDS011;7676;50.900;6.234;2022-08-14T16:49:00;3.55;;;3.35;;
15151;SDS011;7676;50.900;6.234;2022-08-14T16:54:09;3.92;;;3.63;;
15151;SDS011;7676;50.900;6.234;2022-08-14T16:59:36;3.60;;;3.30;;
15151;SDS011;7676;50.900;6.234;2022-08-14T17:10:25;3.60;;;3.40;;
15151;SDS011;7676;50.900;6.234;2022-08-14T17:15:29;3.53;;;3.25;;
15151;SDS011;7676;50.900;6.234;2022-08-14T17:20:32;3.70;;;3.40;;
15151;SDS011;7676;50.900;6.234;2022-08-14T17:25:54;3.53;;;3.30;;
15151;SDS011;7676;50.900;6.234;2022-08-14T17:30:57;3.67;;;3.38;;
15151;SDS011;7676;50.900;6.234;2022-08-14T17:41:23;3.80;;;3.15;;
15151;SDS011;7676;50.900;6.234;2022-08-14T17:51:51;3.78;;;3.47;;
15151;SDS011;7676;50.900;6.234;2022-08-14T17:56:55;4.10;;;3.55;;
15151;SDS011;7676;50.900;6.234;2022-08-14T18:02:01;3.72;;;3.42;;
15151;SDS011;7676;50.900;6.234;2022-08-14T18:07:12;3.50;;;3.30;;
15151;SDS011;7676;50.900;6.234;2022-08-14T18:12:36;4.63;;;3.90;;
15151;SDS011;7676;50.900;6.234;2022-08-14T18:17:45;4.00;;;3.60;;
15151;SDS011;7676;50.900;6.234;2022-08-14T18:22:54;4.05;;;3.58;;
15151;SDS011;7676;50.900;6.234;2022-08-14T18:27:58;3.40;;;3.10;;
15151;SDS011;7676;50.900;6.234;2022-08-14T18:33:18;3.40;;;3.20;;
15151;SDS011;7676;50.900;6.234;2022-08-14T18:38:24;3.42;;;3.17;;
15151;SDS011;7676;50.900;6.234;2022-08-14T18:43:49;3.22;;;2.97;;
15151;SDS011;7676;50.900;6.234;2022-08-14T18:49:22;6.80;;;2.95;;
15151;SDS011;7676;50.900;6.234;2022-08-14T18:54:27;3.45;;;3.15;;
15151;SDS011;7676;50.900;6.234;2022-08-14T18:59:38;3.58;;;3.28;;
15151;SDS011;7676;50.900;6.234;2022-08-14T19:04:44;5.00;;;3.47;;
15151;SDS011;7676;50.900;6.234;2022-08-14T19:15:05;4.00;;;3.38;;
15151;SDS011;7676;50.900;6.234;2022-08-14T19:20:10;3.40;;;3.03;;
15151;SDS011;7676;50.900;6.234;2022-08-14T19:25:46;3.55;;;3.10;;
15151;SDS011;7676;50.900;6.234;2022-08-14T19:36:50;3.45;;;3.13;;
15151;SDS011;7676;50.900;6.234;2022-08-14T19:42:06;3.40;;;3.10;;
15151;SDS011;7676;50.900;6.234;2022-08-14T19:47:13;3.80;;;3.35;;
15151;SDS011;7676;50.900;6.234;2022-08-14T19:57:26;3.83;;;3.30;;
15151;SDS011;7676;50.900;6.234;2022-08-14T20:02:31;3.22;;;3.03;;
15151;SDS011;7676;50.900;6.234;2022-08-14T20:07:39;3.67;;;3.38;;
15151;SDS011;7676;50.900;6.234;2022-08-14T20:13:10;3.53;;;3.33;;
15151;SDS011;7676;50.900;6.234;2022-08-14T20:18:13;3.65;;;3.30;;
15151;SDS011;7676;50.900;6.234;2022-08-14T20:23:37;3.60;;;3.30;;
15151;SDS011;7676;50.900;6.234;2022-08-14T20:28:42;3.33;;;3.13;;
15151;SDS011;7676;50.900;6.234;2022-08-14T20:34:09;3.22;;;3.03;;
15151;SDS011;7676;50.900;6.234;2022-08-14T20:39:25;3.60;;;3.30;;
15151;SDS011;7676;50.900;6.234;2022-08-14T20:44:41;3.60;;;3.30;;
15151;SDS011;7676;50.900;6.234;2022-08-14T20:50:11;3.22;;;2.92;;
15151;SDS011;7676;50.900;6.234;2022-08-14T21:00:39;3.30;;;3.00;;
15151;SDS011;7676;50.900;6.234;2022-08-14T21:05:54;2.90;;;2.65;;
15151;SDS011;7676;50.900;6.234;2022-08-14T21:10:59;3.30;;;3.08;;
15151;SDS011;7676;50.900;6.234;2022-08-14T21:16:04;3.40;;;3.10;;
15151;SDS011;7676;50.900;6.234;2022-08-14T21:21:30;2.65;;;2.45;;
15151;SDS011;7676;50.900;6.234;2022-08-14T21:26:42;2.53;;;2.33;;
15151;SDS011;7676;50.900;6.234;2022-08-14T21:32:05;3.42;;;2.50;;
15151;SDS011;7676;50.900;6.234;2022-08-14T21:37:21;3.00;;;2.80;;
15151;SDS011;7676;50.900;6.234;2022-08-14T21:42:24;3.00;;;2.80;;
15151;SDS011;7676;50.900;6.234;2022-08-14T21:47:28;2.70;;;2.50;;
15151;SDS011;7676;50.900;6.234;2022-08-14T21:52:31;2.90;;;2.70;;
15151;SDS011;7676;50.900;6.234;2022-08-14T21:57:54;2.85;;;2.65;;
15151;SDS011;7676;50.900;6.234;2022-08-14T22:03:18;2.70;;;2.50;;
15151;SDS011;7676;50.900;6.234;2022-08-14T22:08:25;2.90;;;2.55;;
15151;SDS011;7676;50.900;6.234;2022-08-14T22:13:28;2.42;;;2.22;;
15151;SDS011;7676;50.900;6.234;2022-08-14T22:18:33;2.70;;;2.50;;
15151;SDS011;7676;50.900;6.234;2022-08-14T22:23:37;2.58;;;2.38;;
15151;SDS011;7676;50.900;6.234;2022-08-14T22:28:40;2.80;;;2.60;;
15151;SDS011;7676;50.900;6.234;2022-08-14T22:33:46;2.60;;;2.40;;
15151;SDS011;7676;50.900;6.234;2022-08-14T22:38:58;3.03;;;2.60;;
15151;SDS011;7676;50.900;6.234;2022-08-14T22:44:04;2.90;;;2.70;;
15151;SDS011;7676;50.900;6.234;2022-08-14T22:49:12;2.97;;;2.50;;
15151;SDS011;7676;50.900;6.234;2022-08-14T22:54:36;2.50;;;2.30;;
15151;SDS011;7676;50.900;6.234;2022-08-14T22:59:54;2.60;;;2.40;;
15151;SDS011;7676;50.900;6.234;2022-08-14T23:04:59;2.97;;;2.20;;
15151;SDS011;7676;50.900;6.234;2022-08-14T23:10:04;3.00;;;2.30;;
15151;SDS011;7676;50.900;6.234;2022-08-14T23:15:27;3.20;;;2.23;;
15151;SDS011;7676;50.900;6.234;2022-08-14T23:20:31;2.87;;;2.20;;
15151;SDS011;7676;50.900;6.234;2022-08-14T23:25:37;2.20;;;2.00;;
15151;SDS011;7676;50.900;6.234;2022-08-14T23:31:00;2.53;;;2.30;;
15151;SDS011;7676;50.900;6.234;2022-08-14T23:36:09;3.10;;;2.60;;
15151;SDS011;7676;50.900;6.234;2022-08-14T23:41:32;3.60;;;2.13;;
15151;SDS011;7676;50.900;6.234;2022-08-14T23:46:53;2.70;;;2.20;;
15151;SDS011;7676;50.900;6.234;2022-08-14T23:52:06;2.87;;;2.13;;
15151;SDS011;7676;50.900;6.234;2022-08-14T23:57:28;2.83;;;2.07;;
